Time;durP1;ratioP1;P1;durP2;ratioP2;P2;SDS_P1;SDS_P2;PMS_P1;PMS_P2;Temp;Humidity;BMP_temperature;BMP_pressure;BME280_temperature;BME280_humidity;BME280_pressure;Samples;Min_cycle;Max_cycle;Signal;HPM_P1;HPM_P2
2023/09/10 00:00:44;;;;;;;16.90;11.13;;;;;;;21.37;100.00;100703.22;8359051;28;20111;-64
2023/09/10 00:04:44;;;;;;;19.00;10.52;;;;;;;21.18;100.00;100693.00;8347346;28;20091;-64
2023/09/10 00:08:44;;;;;;;15.15;10.68;;;;;;;21.06;100.00;100689.13;8342820;28;20048;-64
2023/09/10 00:12:45;;;;;;;22.65;11.38;;;;;;;21.15;100.00;100693.41;8345394;28;20044;-64
2023/09/10 00:16:45;;;;;;;19.95;11.07;;;;;;;21.31;100.00;100693.06;8358035;28;20570;-64
2023/09/10 00:20:47;;;;;;;21.95;11.10;;;;;;;21.16;100.00;100695.97;8377958;28;20094;-64
2023/09/10 00:24:47;;;;;;;16.83;10.80;;;;;;;20.89;100.00;100698.75;8377830;28;20047;-64
2023/09/10 00:28:49;;;;;;;19.70;11.43;;;;;;;20.85;100.00;100689.19;8385413;28;20044;-64
2023/09/10 00:32:50;;;;;;;18.33;10.88;;;;;;;20.76;100.00;100687.66;8384070;28;20048;-59
2023/09/10 00:36:50;;;;;;;19.15;11.27;;;;;;;20.74;100.00;100689.78;8378331;28;20028;-59
2023/09/10 00:40:51;;;;;;;17.80;11.73;;;;;;;20.76;100.00;100687.66;8383545;28;20048;-58
2023/09/10 00:44:51;;;;;;;18.33;11.48;;;;;;;20.72;100.00;100684.50;8376627;28;20037;-58
2023/09/10 00:48:52;;;;;;;16.75;11.63;;;;;;;20.78;100.00;100680.06;8378786;28;20116;-60
2023/09/10 00:52:57;;;;;;;19.80;12.10;;;;;;;20.99;100.00;100688.25;8379284;28;20033;-63
2023/09/10 00:57:00;;;;;;;21.20;11.93;;;;;;;20.99;100.00;100677.25;8377518;28;20029;-58
2023/09/10 01:01:01;;;;;;;19.63;11.50;;;;;;;20.86;100.00;100680.75;8377431;28;20029;-60
2023/09/10 01:05:01;;;;;;;18.35;11.73;;;;;;;20.80;100.00;100678.81;8378919;28;20038;-69
2023/09/10 01:09:04;;;;;;;19.85;11.90;;;;;;;20.87;100.00;100678.84;8379937;28;20229;-66
2023/09/10 01:13:12;;;;;;;24.98;12.40;;;;;;;20.89;100.00;100676.75;8378432;28;20047;-67
2023/09/10 01:17:18;;;;;;;17.80;12.13;;;;;;;20.99;100.00;100683.63;8376871;28;20048;-68
2023/09/10 01:21:44;;;;;;;19.80;12.05;;;;;;;20.91;100.00;100675.50;8378378;28;20115;-68
2023/09/10 01:25:46;;;;;;;21.05;11.35;;;;;;;20.89;100.00;100682.25;8352384;28;20033;-61
2023/09/10 01:29:47;;;;;;;23.85;11.82;;;;;;;20.97;100.00;100680.22;8344858;28;20051;-60
2023/09/10 01:34:01;;;;;;;22.60;11.95;;;;;;;20.84;100.00;100684.75;8344881;28;20041;-60
2023/09/10 01:42:17;;;;;;;20.45;11.43;;;;;;;20.75;100.00;100691.47;8360638;27;20392;-59
2023/09/10 01:46:18;;;;;;;19.27;11.48;;;;;;;20.70;100.00;100691.22;8353448;28;20040;-62
2023/09/10 01:50:19;;;;;;;22.70;12.18;;;;;;;20.66;100.00;100692.69;8351531;28;20037;-62
2023/09/10 01:54:19;;;;;;;20.63;13.23;;;;;;;20.59;100.00;100686.28;8352184;28;20043;-58
2023/09/10 01:58:20;;;;;;;28.75;11.85;;;;;;;20.46;100.00;100686.22;8352702;28;20029;-58
2023/09/10 02:02:20;;;;;;;20.88;11.65;;;;;;;20.56;100.00;100686.69;8350192;28;20068;-58
2023/09/10 02:06:21;;;;;;;20.92;11.63;;;;;;;20.65;100.00;100691.81;8352140;28;20128;-62
2023/09/10 02:10:22;;;;;;;19.77;11.98;;;;;;;20.49;100.00;100692.13;8352888;28;20053;-62
2023/09/10 02:14:23;;;;;;;20.75;12.45;;;;;;;20.35;100.00;100700.47;8352671;28;20041;-62
2023/09/10 02:18:25;;;;;;;20.58;11.25;;;;;;;20.39;100.00;100708.13;8345572;28;20041;-63
2023/09/10 02:22:26;;;;;;;20.45;12.25;;;;;;;20.40;100.00;100698.00;8355412;28;20084;-62
2023/09/10 02:26:26;;;;;;;20.17;12.88;;;;;;;20.41;100.00;100699.69;8351112;28;20033;-62
2023/09/10 02:30:27;;;;;;;20.35;11.88;;;;;;;20.38;100.00;100694.59;8348366;28;20569;-62
2023/09/10 02:34:27;;;;;;;18.15;11.93;;;;;;;20.35;100.00;100706.81;8352223;28;20518;-62
2023/09/10 02:38:28;;;;;;;21.30;11.98;;;;;;;20.32;100.00;100712.72;8350721;28;20063;-62
2023/09/10 02:42:28;;;;;;;19.02;12.05;;;;;;;20.29;100.00;100698.53;8350719;28;20441;-62
2023/09/10 02:46:28;;;;;;;21.70;11.65;;;;;;;20.27;100.00;100708.84;8351436;28;20064;-62
2023/09/10 02:50:29;;;;;;;17.65;10.95;;;;;;;20.32;100.00;100707.22;8344532;28;20507;-62
2023/09/10 02:54:30;;;;;;;19.38;11.35;;;;;;;20.33;100.00;100705.31;8328402;28;20044;-62
2023/09/10 02:58:30;;;;;;;16.65;10.82;;;;;;;20.29;100.00;100713.13;8328390;28;20038;-62
2023/09/10 03:02:31;;;;;;;22.30;12.60;;;;;;;20.23;100.00;100708.41;8326740;28;20053;-61
2023/09/10 03:06:31;;;;;;;20.77;11.30;;;;;;;20.17;100.00;100708.34;8361705;28;20495;-62
2023/09/10 03:10:35;;;;;;;17.50;10.93;;;;;;;20.11;100.00;100715.44;8329896;28;20121;-62
2023/09/10 03:14:35;;;;;;;16.38;11.07;;;;;;;20.15;100.00;100713.19;8327592;28;20111;-67
2023/09/10 03:18:36;;;;;;;19.58;11.65;;;;;;;20.06;100.00;100711.59;8325315;28;20042;-67
2023/09/10 03:22:37;;;;;;;23.77;11.65;;;;;;;20.08;100.00;100714.97;8331465;28;20493;-67
2023/09/10 03:26:38;;;;;;;21.17;11.45;;;;;;;20.05;100.00;100715.38;8327151;28;20033;-67
2023/09/10 03:30:38;;;;;;;20.88;12.35;;;;;;;19.95;100.00;100710.25;8325820;28;20045;-67
2023/09/10 03:34:39;;;;;;;22.67;11.88;;;;;;;19.90;100.00;100712.72;8328832;28;20044;-57
2023/09/10 03:38:39;;;;;;;14.48;11.43;;;;;;;19.96;100.00;100713.81;8328152;28;20036;-57
2023/09/10 03:42:41;;;;;;;15.90;11.00;;;;;;;19.87;100.00;100707.63;8324791;28;20049;-58
2023/09/10 03:46:41;;;;;;;17.30;11.05;;;;;;;19.83;100.00;100708.19;8311939;28;20084;-58
2023/09/10 03:50:42;;;;;;;18.33;11.70;;;;;;;19.87;100.00;100717.72;8325517;28;20080;-57
2023/09/10 03:54:43;;;;;;;22.52;11.93;;;;;;;19.87;100.00;100713.09;8322864;28;20060;-58
2023/09/10 03:58:43;;;;;;;18.02;11.38;;;;;;;19.86;100.00;100725.13;8325603;28;20053;-58
2023/09/10 04:02:44;;;;;;;16.75;10.98;;;;;;;19.80;100.00;100711.34;8322681;28;20080;-57
2023/09/10 04:06:45;;;;;;;23.48;12.15;;;;;;;19.69;100.00;100706.34;8320726;28;20132;-57
2023/09/10 04:10:45;;;;;;;20.65;12.20;;;;;;;19.66;100.00;100704.00;8329326;28;20042;-57
2023/09/10 04:14:46;;;;;;;22.70;12.82;;;;;;;19.65;100.00;100703.16;8325904;28;20116;-57
2023/09/10 04:18:46;;;;;;;19.10;11.57;;;;;;;19.72;100.00;100709.56;8324101;28;20420;-57
2023/09/10 04:22:47;;;;;;;24.50;11.77;;;;;;;19.76;100.00;100715.53;8322659;28;20084;-58
2023/09/10 04:26:47;;;;;;;19.42;12.38;;;;;;;19.75;100.00;100708.31;8324915;28;20124;-57
2023/09/10 04:30:48;;;;;;;24.17;11.98;;;;;;;19.75;100.00;100703.69;8324105;28;20041;-58
2023/09/10 04:34:49;;;;;;;21.50;11.95;;;;;;;19.77;100.00;100706.22;8326540;28;20049;-59
2023/09/10 04:38:49;;;;;;;19.73;12.00;;;;;;;19.76;100.00;100704.53;8326020;28;20099;-58
2023/09/10 04:42:52;;;;;;;19.88;11.80;;;;;;;19.72;100.00;100706.81;8324816;28;20041;-58
2023/09/10 04:46:54;;;;;;;20.77;12.93;;;;;;;19.67;100.00;100711.19;8323936;28;20487;-62
2023/09/10 04:50:56;;;;;;;19.83;12.30;;;;;;;19.69;100.00;100703.59;8325963;28;20041;-62
2023/09/10 04:54:57;;;;;;;21.60;12.38;;;;;;;19.70;100.00;100705.31;8323141;28;20508;-67
2023/09/10 04:58:58;;;;;;;23.50;12.70;;;;;;;19.69;100.00;100709.09;8324865;28;20062;-68
2023/09/10 05:02:58;;;;;;;19.50;11.35;;;;;;;19.74;100.00;100712.09;8324837;28;20048;-67
2023/09/10 05:06:59;;;;;;;22.77;12.45;;;;;;;19.67;100.00;100711.19;8322402;28;20180;-67
2023/09/10 05:11:00;;;;;;;15.63;11.07;;;;;;;19.66;100.00;100720.44;8338520;28;20036;-66
2023/09/10 05:15:01;;;;;;;22.92;11.70;;;;;;;19.72;100.00;100727.91;8339117;28;20029;-56
2023/09/10 05:19:01;;;;;;;22.85;11.32;;;;;;;19.70;100.00;100733.59;8339504;28;20120;-57
2023/09/10 05:23:03;;;;;;;17.20;10.93;;;;;;;19.74;100.00;100740.41;8339043;28;20060;-58
2023/09/10 05:27:03;;;;;;;16.92;11.32;;;;;;;19.71;100.00;100735.31;8341186;28;20099;-59
2023/09/10 05:31:05;;;;;;;16.33;11.10;;;;;;;19.77;100.00;100728.19;8328353;28;20703;-58
2023/09/10 05:35:07;;;;;;;20.27;10.93;;;;;;;19.91;100.00;100730.03;8338086;28;20043;-62
2023/09/10 05:39:07;;;;;;;17.70;10.77;;;;;;;19.97;100.00;100738.31;8340035;28;20426;-62
2023/09/10 05:43:08;;;;;;;20.13;11.65;;;;;;;20.13;100.00;100735.34;8329405;28;20049;-62
2023/09/10 05:47:10;;;;;;;20.33;10.65;;;;;;;20.24;100.00;100742.19;8335828;28;20110;-62
2023/09/10 05:51:10;;;;;;;18.67;10.68;;;;;;;20.33;100.00;100741.88;8336858;28;20033;-62
2023/09/10 05:55:11;;;;;;;17.38;10.57;;;;;;;20.41;100.00;100746.38;8337958;28;20033;-62
2023/09/10 05:59:11;;;;;;;20.77;10.90;;;;;;;20.52;100.00;100748.59;8336429;28;20820;-62
2023/09/10 06:03:13;;;;;;;16.55;10.95;;;;;;;20.57;100.00;100744.19;8333155;28;20786;-63
2023/09/10 06:07:13;;;;;;;16.88;10.63;;;;;;;20.60;100.00;100749.28;8329945;28;20049;-57
2023/09/10 06:11:15;;;;;;;16.70;10.30;;;;;;;20.75;100.00;100754.69;8323578;28;20072;-60
2023/09/10 06:15:16;;;;;;;20.27;10.77;;;;;;;20.86;100.00;100760.47;8313593;28;20038;-59
2023/09/10 06:19:16;;;;;;;17.88;10.45;;;;;;;21.06;100.00;100761.47;8330257;28;20484;-59
2023/09/10 06:23:17;;;;;;;16.40;10.48;;;;;;;21.16;100.00;100753.72;8332079;28;20065;-59
2023/09/10 06:27:18;;;;;;;17.98;10.05;;;;;;;21.38;100.00;100755.28;8343919;28;20521;-63
2023/09/10 06:31:18;;;;;;;12.65;10.18;;;;;;;21.57;100.00;100759.19;8343162;28;20048;-63
2023/09/10 06:35:20;;;;;;;21.60;10.38;;;;;;;21.80;100.00;100753.41;8344225;28;20451;-63
2023/09/10 06:39:22;;;;;;;18.50;10.00;;;;;;;21.91;100.00;100753.63;8345981;28;20069;-63
2023/09/10 06:43:24;;;;;;;15.05;9.77;;;;;;;22.15;100.00;100755.81;8346396;28;20033;-62
2023/09/10 06:47:37;;;;;;;16.27;9.82;;;;;;;22.22;100.00;100759.41;8343155;28;20503;-59
2023/09/10 06:51:37;;;;;;;14.95;9.75;;;;;;;22.41;99.13;100764.06;8340928;28;20411;-58
2023/09/10 06:55:38;;;;;;;17.38;9.38;;;;;;;22.85;98.63;100771.75;8335912;28;20091;-60
2023/09/10 06:59:38;;;;;;;17.33;11.40;;;;;;;23.21;94.96;100766.59;8361782;28;20042;-59
2023/09/10 07:03:39;;;;;;;17.75;10.70;;;;;;;23.33;93.98;100772.31;8339334;28;20037;-59
2023/09/10 07:07:39;;;;;;;12.60;9.25;;;;;;;23.47;93.77;100772.03;8325954;28;20090;-58
2023/09/10 07:11:40;;;;;;;16.48;9.10;;;;;;;23.57;95.37;100771.59;8339066;28;20041;-58
2023/09/10 07:15:41;;;;;;;13.25;8.02;;;;;;;23.89;91.43;100776.09;8330775;28;20053;-58
2023/09/10 07:19:41;;;;;;;13.18;8.25;;;;;;;23.95;89.64;100787.16;8336927;28;20048;-58
2023/09/10 07:23:42;;;;;;;13.05;8.73;;;;;;;24.17;90.05;100794.03;8340543;28;20095;-58
2023/09/10 07:27:42;;;;;;;12.77;7.97;;;;;;;24.55;87.81;100783.75;8326323;28;20098;-63
2023/09/10 07:31:43;;;;;;;12.93;8.57;;;;;;;24.67;86.67;100786.69;8339876;28;20058;-63
2023/09/10 07:35:44;;;;;;;13.27;8.65;;;;;;;24.77;87.85;100792.56;8331226;28;20132;-66
2023/09/10 07:39:44;;;;;;;15.38;7.78;;;;;;;25.21;86.25;100789.56;8333334;28;20063;-67
2023/09/10 07:43:44;;;;;;;12.07;8.02;;;;;;;25.25;84.69;100798.28;8341650;28;20037;-66
2023/09/10 07:47:45;;;;;;;13.82;7.20;;;;;;;25.30;84.50;100799.25;8338432;28;20037;-67
2023/09/10 07:51:45;;;;;;;14.00;7.63;;;;;;;25.38;83.20;100801.78;8334462;28;20037;-67
2023/09/10 07:55:46;;;;;;;13.82;7.40;;;;;;;25.61;83.04;100804.69;8340327;28;20042;-59
2023/09/10 07:59:46;;;;;;;15.82;7.32;;;;;;;25.95;83.30;100804.03;8340589;28;20037;-58
2023/09/10 08:03:47;;;;;;;11.10;7.43;;;;;;;26.38;81.25;100803.91;8341230;28;20564;-61
2023/09/10 08:07:47;;;;;;;15.60;7.28;;;;;;;26.61;80.70;100810.34;8333271;28;20041;-60
2023/09/10 08:11:48;;;;;;;10.90;6.55;;;;;;;26.51;79.38;100810.09;8326976;28;20124;-59
2023/09/10 08:15:48;;;;;;;13.23;7.05;;;;;;;26.68;78.56;100811.13;8333297;28;20068;-63
2023/09/10 08:19:48;;;;;;;9.13;5.70;;;;;;;26.94;76.95;100815.38;8330929;28;20074;-63
2023/09/10 08:23:50;;;;;;;14.75;5.72;;;;;;;27.32;76.03;100803.84;8335398;28;20046;-63
2023/09/10 08:27:50;;;;;;;9.25;5.55;;;;;;;27.50;74.65;100803.69;8368798;28;20037;-63
2023/09/10 08:31:50;;;;;;;12.45;6.18;;;;;;;27.49;75.74;100796.44;8333784;28;20427;-62
2023/09/10 08:35:52;;;;;;;8.75;5.70;;;;;;;27.81;74.95;100794.94;8337890;28;20060;-58
2023/09/10 08:39:53;;;;;;;13.90;5.65;;;;;;;28.20;75.06;100799.63;8337082;28;20072;-61
2023/09/10 08:43:56;;;;;;;10.90;5.45;;;;;;;28.15;72.97;100796.75;8336134;28;20348;-66
2023/09/10 08:48:00;;;;;;;11.68;5.90;;;;;;;28.18;73.82;100797.09;8334613;28;20041;-63
2023/09/10 08:52:01;;;;;;;9.77;6.13;;;;;;;28.46;72.63;100799.06;8336723;28;20041;-63
2023/09/10 08:56:04;;;;;;;12.40;6.22;;;;;;;28.83;71.81;100786.34;8333213;28;20053;-59
2023/09/10 09:00:10;;;;;;;12.43;6.22;;;;;;;29.02;70.28;100793.34;8328982;28;20037;-58
2023/09/10 09:04:12;;;;;;;13.30;6.28;;;;;;;28.89;70.09;100792.84;8337085;28;20037;-68
2023/09/10 09:08:15;;;;;;;13.32;5.85;;;;;;;29.37;69.72;100793.06;8366349;28;21242;-67
2023/09/10 09:12:17;;;;;;;15.02;6.25;;;;;;;29.56;68.60;100789.72;8329118;28;20041;-66
2023/09/10 09:16:20;;;;;;;10.00;5.80;;;;;;;29.56;66.83;100784.16;8326949;28;20037;-60
2023/09/10 09:20:21;;;;;;;9.65;5.20;;;;;;;29.47;67.88;100774.56;8325810;28;20080;-60
2023/09/10 09:24:22;;;;;;;11.45;5.82;;;;;;;29.95;66.72;100784.97;8321851;28;20036;-65
2023/09/10 09:28:24;;;;;;;21.50;5.55;;;;;;;31.01;64.01;100782.16;8325170;28;20410;-63
2023/09/10 09:32:25;;;;;;;19.55;5.15;;;;;;;32.60;59.74;100783.22;8329287;28;20084;-64
2023/09/10 09:36:27;;;;;;;8.30;5.20;;;;;;;34.00;54.73;100781.34;8317166;28;20037;-65
2023/09/10 09:40:28;;;;;;;8.50;5.15;;;;;;;34.92;53.77;100781.31;8327444;28;20038;-63
2023/09/10 09:44:29;;;;;;;9.77;4.60;;;;;;;35.25;52.44;100775.63;8326803;28;20550;-65
2023/09/10 09:48:30;;;;;;;12.10;4.78;;;;;;;35.18;52.50;100771.50;8327618;28;20570;-61
2023/09/10 09:52:30;;;;;;;13.02;5.43;;;;;;;35.67;52.86;100764.50;8328870;28;20041;-64
2023/09/10 09:56:31;;;;;;;10.25;4.75;;;;;;;36.19;51.84;100774.81;8334437;28;20075;-64
2023/09/10 10:00:34;;;;;;;10.40;4.65;;;;;;;36.66;50.18;100769.06;8332582;28;20048;-64
2023/09/10 10:04:35;;;;;;;11.15;4.43;;;;;;;37.01;49.93;100770.44;8337593;28;20164;-64
2023/09/10 10:08:37;;;;;;;11.15;4.57;;;;;;;36.90;48.48;100764.16;8336797;28;20095;-64
2023/09/10 10:12:38;;;;;;;11.48;4.65;;;;;;;37.03;48.89;100763.38;8335418;28;20566;-65
2023/09/10 10:16:39;;;;;;;11.18;4.18;;;;;;;36.97;48.34;100753.31;8337118;28;20051;-64
2023/09/10 10:20:40;;;;;;;10.48;4.45;;;;;;;37.20;48.02;100751.53;8338700;28;20045;-65
2023/09/10 10:24:41;;;;;;;9.90;4.50;;;;;;;37.62;47.86;100747.59;8338525;28;20041;-64
2023/09/10 10:28:44;;;;;;;7.38;3.88;;;;;;;37.33;47.38;100745.91;8342493;28;20087;-65
2023/09/10 10:32:45;;;;;;;10.33;4.60;;;;;;;38.15;45.79;100746.75;8340362;28;20060;-66
2023/09/10 10:41:13;;;;;;;12.00;4.32;;;;;;;38.44;45.60;100737.84;8368236;27;20786;-65
2023/09/10 10:45:17;;;;;;;7.80;3.67;;;;;;;39.04;44.71;100725.03;8361196;28;20174;-65
2023/09/10 10:49:18;;;;;;;8.13;3.53;;;;;;;39.29;43.07;100715.84;8362796;28;20557;-64
2023/09/10 10:53:22;;;;;;;10.45;4.10;;;;;;;39.64;43.50;100719.69;8363564;28;20497;-64
2023/09/10 10:57:25;;;;;;;12.20;4.10;;;;;;;40.14;42.78;100716.16;8366481;28;20048;-62
2023/09/10 11:01:25;;;;;;;9.70;3.72;;;;;;;40.16;43.00;100708.13;8399371;28;20547;-62
2023/09/10 11:05:26;;;;;;;6.55;3.80;;;;;;;39.76;43.89;100702.88;8394620;28;20071;-62
2023/09/10 11:09:34;;;;;;;10.73;4.35;;;;;;;39.41;43.29;100713.25;8393866;28;20102;-62
2023/09/10 11:13:57;;;;;;;9.68;3.83;;;;;;;38.51;44.37;100715.66;8397663;28;20479;-62
2023/09/10 11:18:37;;;;;;;9.45;3.78;;;;;;;39.81;43.33;100703.56;8399466;28;20399;-62
2023/09/10 11:23:06;;;;;;;12.35;4.38;;;;;;;39.93;43.43;100698.13;8362454;28;20097;-62
2023/09/10 11:27:30;;;;;;;9.98;3.72;;;;;;;40.34;42.20;100692.81;8397300;28;20036;-59
2023/09/10 11:31:38;;;;;;;11.10;3.45;;;;;;;40.42;42.02;100694.84;8366404;28;20044;-60
2023/09/10 11:35:39;;;;;;;8.82;3.50;;;;;;;41.79;40.45;100700.13;8368012;28;20037;-60
2023/09/10 11:39:40;;;;;;;12.32;4.15;;;;;;;41.63;40.97;100701.88;8360113;28;20049;-60
2023/09/10 11:43:40;;;;;;;9.32;3.97;;;;;;;40.07;43.08;100698.81;8367009;28;20474;-60
2023/09/10 11:47:43;;;;;;;14.73;3.47;;;;;;;40.41;42.42;100698.84;8360009;28;20065;-62
2023/09/10 11:51:46;;;;;;;8.50;4.38;;;;;;;40.61;42.03;100695.31;8344961;28;20412;-62
2023/09/10 11:55:47;;;;;;;11.88;3.80;;;;;;;40.32;41.75;100700.84;8343323;28;20041;-58
2023/09/10 11:59:50;;;;;;;10.57;3.53;;;;;;;40.63;41.73;100695.81;8350834;28;20049;-58
2023/09/10 12:03:50;;;;;;;;;;;;;;;42.06;39.83;100693.94;8345040;28;20447;-59
2023/09/10 12:07:51;;;;;;;6.28;3.50;;;;;;;40.96;41.65;100692.44;8343669;28;19916;-60
2023/09/10 12:11:54;;;;;;;7.30;3.50;;;;;;;40.15;42.44;100678.13;8372300;28;20516;-60
2023/09/10 12:15:54;;;;;;;;;;;;;;;40.99;41.80;100683.22;8369760;28;20637;-59
2023/09/10 12:19:56;;;;;;;8.85;3.67;;;;;;;39.03;42.74;100678.13;8368239;28;20413;-61
2023/09/10 12:23:56;;;;;;;12.13;4.65;;;;;;;40.06;43.81;100671.63;8372556;28;20490;-59
2023/09/10 12:27:57;;;;;;;7.25;4.95;;;;;;;38.55;43.83;100671.47;8372189;28;20063;-61
2023/09/10 12:31:58;;;;;;;7.80;4.18;;;;;;;36.04;47.81;100668.00;8374370;28;20056;-61
2023/09/10 12:36:01;;;;;;;9.52;3.95;;;;;;;35.13;49.70;100664.72;8370143;28;20114;-59
2023/09/10 12:40:02;;;;;;;12.52;3.75;;;;;;;35.25;49.93;100662.31;8368773;28;20044;-59
2023/09/10 12:44:06;;;;;;;14.52;4.30;;;;;;;34.91;49.97;100661.59;8369725;28;20067;-60
2023/09/10 12:48:07;;;;;;;10.82;4.35;;;;;;;34.34;52.32;100661.50;8371347;28;20494;-64
2023/09/10 12:52:08;;;;;;;11.07;4.47;;;;;;;34.59;51.62;100641.63;8371518;28;20405;-65
2023/09/10 12:56:09;;;;;;;9.25;4.22;;;;;;;34.16;52.34;100646.22;8372570;28;20037;-60
2023/09/10 13:00:10;;;;;;;8.63;3.60;;;;;;;33.76;52.49;100643.66;8372507;28;20145;-60
2023/09/10 13:04:10;;;;;;;10.48;3.70;;;;;;;33.83;53.95;100636.59;8368318;28;20445;-59
2023/09/10 13:08:11;;;;;;;8.80;4.43;;;;;;;34.03;53.38;100626.38;8369629;28;20056;-63
2023/09/10 13:12:12;;;;;;;8.65;4.00;;;;;;;33.94;51.47;100629.78;8368242;28;20076;-63
2023/09/10 13:16:12;;;;;;;9.50;3.97;;;;;;;33.64;53.03;100631.94;8373801;28;20036;-60
2023/09/10 13:20:13;;;;;;;9.70;3.67;;;;;;;33.67;52.42;100629.38;8377191;28;20106;-60
2023/09/10 13:24:13;;;;;;;10.80;4.45;;;;;;;33.44;54.05;100618.84;8379242;28;20041;-61
2023/09/10 13:28:14;;;;;;;9.00;4.30;;;;;;;33.39;52.97;100616.06;8370401;28;20309;-60
2023/09/10 13:32:14;;;;;;;8.10;3.60;;;;;;;33.09;53.44;100612.53;8379481;28;20120;-60
2023/09/10 13:36:15;;;;;;;8.60;4.53;;;;;;;33.58;54.43;100607.84;8373325;28;20032;-60
2023/09/10 13:40:15;;;;;;;10.43;4.18;;;;;;;33.61;54.75;100605.28;8377716;28;20175;-60
2023/09/10 13:44:16;;;;;;;9.27;4.47;;;;;;;33.33;54.17;100611.56;8371278;28;20040;-61
2023/09/10 13:48:16;;;;;;;10.80;4.10;;;;;;;33.35;54.60;100606.53;8369157;28;20044;-59
2023/09/10 13:52:17;;;;;;;10.02;5.03;;;;;;;33.48;54.36;100607.91;8370633;28;20127;-60
2023/09/10 13:56:17;;;;;;;10.32;5.15;;;;;;;33.39;54.65;100604.84;8369106;28;20040;-60
2023/09/10 14:00:18;;;;;;;7.72;3.83;;;;;;;33.63;54.01;100611.44;8367043;28;20524;-60
2023/09/10 14:04:18;;;;;;;16.73;4.20;;;;;;;33.73;53.00;100594.53;8373964;28;20123;-61
2023/09/10 14:08:19;;;;;;;10.13;4.30;;;;;;;33.51;53.92;100608.16;8375041;28;20040;-61
2023/09/10 14:12:21;;;;;;;10.32;4.72;;;;;;;33.16;53.60;100594.28;8373710;28;20290;-60
2023/09/10 14:16:21;;;;;;;7.47;5.03;;;;;;;33.19;53.92;100590.91;8376976;28;20040;-59
2023/09/10 14:20:21;;;;;;;9.13;4.82;;;;;;;33.25;53.90;100591.72;8375066;28;20060;-59
2023/09/10 14:24:25;;;;;;;9.23;4.38;;;;;;;33.13;53.00;100585.59;8377866;28;20095;-60
2023/09/10 14:28:25;;;;;;;9.57;5.03;;;;;;;33.29;53.53;100576.84;8368047;28;20047;-62
2023/09/10 14:32:26;;;;;;;11.48;4.75;;;;;;;33.45;54.19;100575.66;8378363;28;20044;-64
2023/09/10 14:36:26;;;;;;;14.45;4.60;;;;;;;33.56;53.82;100580.09;8371804;28;20040;-63
2023/09/10 14:40:27;;;;;;;8.57;4.88;;;;;;;33.30;54.80;100575.72;8373398;28;20041;-65
2023/09/10 14:44:27;;;;;;;14.02;5.32;;;;;;;33.33;54.22;100582.72;8379293;28;20445;-64
2023/09/10 14:48:28;;;;;;;13.20;5.18;;;;;;;33.27;54.49;100578.28;8373874;28;20060;-65
2023/09/10 14:52:28;;;;;;;7.47;4.55;;;;;;;33.29;55.56;100574.03;8371065;28;20506;-65
2023/09/10 14:56:29;;;;;;;12.68;5.07;;;;;;;33.24;55.31;100585.25;8374360;28;20052;-62
2023/09/10 15:00:29;;;;;;;11.27;4.47;;;;;;;33.21;53.66;100571.00;8373645;28;20356;-62
2023/09/10 15:04:30;;;;;;;7.65;4.53;;;;;;;33.21;54.79;100583.03;8373078;28;20044;-62
2023/09/10 15:08:30;;;;;;;11.13;4.35;;;;;;;33.06;53.88;100571.94;8372271;28;20037;-58
2023/09/10 15:12:31;;;;;;;9.75;4.45;;;;;;;33.02;53.88;100575.59;8374187;28;20144;-59
2023/09/10 15:16:31;;;;;;;7.18;4.18;;;;;;;32.94;53.38;100571.41;8371901;28;20068;-62
2023/09/10 15:20:32;;;;;;;10.35;4.10;;;;;;;32.91;53.15;100574.78;8369897;28;20482;-62
2023/09/10 15:24:33;;;;;;;8.30;4.60;;;;;;;32.91;53.53;100557.13;8376061;28;20041;-63
2023/09/10 15:28:33;;;;;;;13.77;4.30;;;;;;;32.84;54.13;100559.38;8379746;28;20622;-62
2023/09/10 15:32:33;;;;;;;11.07;4.73;;;;;;;32.79;53.02;100557.44;8388447;28;20116;-62
2023/09/10 15:36:35;;;;;;;10.13;4.15;;;;;;;32.81;53.95;100560.75;8378303;28;20307;-62
2023/09/10 15:40:36;;;;;;;12.90;4.57;;;;;;;32.86;53.85;100549.56;8382553;28;20056;-62
2023/09/10 15:44:36;;;;;;;8.07;4.32;;;;;;;32.86;54.29;100543.97;8380314;28;20465;-62
2023/09/10 15:48:38;;;;;;;12.55;4.93;;;;;;;32.90;53.70;100553.47;8380419;28;20064;-64
2023/09/10 15:52:39;;;;;;;7.97;4.25;;;;;;;32.75;53.59;100547.88;8378142;28;20047;-64
2023/09/10 15:56:39;;;;;;;18.38;5.75;;;;;;;32.66;54.19;100543.19;8378279;28;20064;-59
2023/09/10 16:00:40;;;;;;;11.25;4.85;;;;;;;32.62;54.54;100542.91;8385260;28;20045;-58
2023/09/10 16:04:41;;;;;;;7.80;4.38;;;;;;;32.74;55.84;100537.81;8379171;28;20041;-58
2023/09/10 16:08:41;;;;;;;8.57;4.50;;;;;;;32.70;54.74;100533.06;8380473;28;20071;-59
2023/09/10 16:12:42;;;;;;;11.05;3.92;;;;;;;32.69;54.64;100532.22;8379339;28;20293;-59
2023/09/10 16:16:42;;;;;;;6.05;3.92;;;;;;;32.62;55.19;100534.50;8374041;28;20098;-59
2023/09/10 16:20:43;;;;;;;7.25;3.92;;;;;;;32.51;56.52;100530.06;8376979;28;20076;-58
2023/09/10 16:24:43;;;;;;;6.38;3.75;;;;;;;32.42;55.22;100531.78;8380251;28;20041;-59
2023/09/10 16:28:44;;;;;;;11.63;4.40;;;;;;;32.35;56.20;100528.41;8381014;28;20102;-58
2023/09/10 16:32:45;;;;;;;10.57;5.00;;;;;;;32.26;55.62;100516.06;8378538;28;20094;-58
2023/09/10 16:36:46;;;;;;;8.38;4.25;;;;;;;32.26;56.31;100526.44;8375314;28;20071;-59
2023/09/10 16:40:46;;;;;;;7.50;4.13;;;;;;;32.08;56.64;100525.09;8378241;28;20040;-59
2023/09/10 16:44:47;;;;;;;8.38;4.05;;;;;;;32.05;57.69;100532.06;8373787;28;20031;-58
2023/09/10 16:48:47;;;;;;;6.90;3.92;;;;;;;31.98;57.78;100533.47;8372664;28;20052;-62
2023/09/10 16:52:48;;;;;;;14.15;4.25;;;;;;;31.94;57.94;100540.75;8374806;28;20040;-63
2023/09/10 16:56:48;;;;;;;11.48;4.45;;;;;;;31.82;58.54;100534.59;8374364;28;20555;-63
2023/09/10 17:00:49;;;;;;;10.38;4.20;;;;;;;31.68;58.53;100530.66;8380804;28;20505;-62
2023/09/10 17:04:49;;;;;;;12.27;4.50;;;;;;;31.57;58.49;100531.75;8374968;28;20040;-62
2023/09/10 17:08:50;;;;;;;7.50;4.30;;;;;;;31.43;59.69;100522.19;8376697;28;20041;-63
2023/09/10 17:12:50;;;;;;;12.38;4.30;;;;;;;31.31;60.01;100528.06;8374948;28;20479;-62
2023/09/10 17:16:51;;;;;;;8.45;4.50;;;;;;;31.21;60.55;100519.63;8372338;28;20032;-64
2023/09/10 17:20:51;;;;;;;10.95;4.40;;;;;;;31.07;61.85;100523.22;8373183;28;20032;-65
2023/09/10 17:24:52;;;;;;;9.65;5.03;;;;;;;30.88;63.24;100519.22;8375336;28;20412;-64
2023/09/10 17:28:52;;;;;;;8.02;4.25;;;;;;;30.76;63.99;100521.44;8375499;28;20032;-60
2023/09/10 17:32:57;;;;;;;8.40;4.55;;;;;;;30.49;65.94;100531.88;8379417;28;20041;-60
2023/09/10 17:36:57;;;;;;;12.63;4.93;;;;;;;30.28;67.31;100520.56;8373097;28;20039;-59
2023/09/10 17:40:58;;;;;;;13.00;4.95;;;;;;;30.31;67.52;100508.03;8375092;28;20064;-59
2023/09/10 17:45:00;;;;;;;10.40;4.72;;;;;;;30.02;68.48;100513.13;8372797;28;20040;-59
2023/09/10 17:49:00;;;;;;;11.07;4.63;;;;;;;29.76;68.86;100527.13;8342100;28;20127;-64
2023/09/10 17:53:01;;;;;;;10.60;4.60;;;;;;;29.53;69.44;100522.69;8343307;28;20064;-65
2023/09/10 17:57:01;;;;;;;18.55;5.28;;;;;;;29.21;70.01;100505.06;8341352;28;20076;-58
2023/09/10 18:01:02;;;;;;;6.93;4.60;;;;;;;29.28;70.37;100519.66;8342090;28;20041;-59
2023/09/10 18:05:03;;;;;;;12.35;4.72;;;;;;;28.81;73.60;100523.25;8342744;28;20534;-59
2023/09/10 18:09:04;;;;;;;7.97;5.22;;;;;;;28.25;76.31;100521.59;8346881;28;20087;-63
2023/09/10 18:13:04;;;;;;;14.30;5.00;;;;;;;28.60;73.72;100522.13;8340976;28;20041;-63
2023/09/10 18:17:05;;;;;;;13.27;5.38;;;;;;;28.59;72.91;100526.00;8341495;28;20040;-61
2023/09/10 18:21:05;;;;;;;12.10;5.35;;;;;;;28.81;73.77;100529.63;8338400;28;20044;-61
2023/09/10 18:25:06;;;;;;;14.43;5.88;;;;;;;27.86;80.85;100530.97;8342964;28;20040;-58
2023/09/10 18:29:07;;;;;;;8.05;5.18;;;;;;;28.21;76.93;100537.13;8339623;28;20044;-60
2023/09/10 18:33:08;;;;;;;10.77;5.75;;;;;;;28.08;77.46;100534.66;8353151;28;20045;-60